FMNM/MJN METAR and TAF weather

Enter ICAO airport designator
Station Type Date Time Source
FMNM METAR 2022/08/13 12:00 UTC NOAA

FMNM 131200Z 29005KT 160V330 9999 FEW023 31/18 Q1014 NOSIG


Station Type Date Time Source
FMNM Decoded METAR 2022/08/13 12:00 UTC NOAA

Majunga, Madagascar (FMNM) 15-40S 046-21E 18M
Aug 13, 2022 - 08:00 AM EDT / 2022.08.13 1200 UTC
Wind: from the WNW (290 degrees) at 6 MPH (5 KT) (direction variable):0
Visibility: greater than 7 mile(s):0
Sky conditions: mostly clear
Temperature: 87 F (31 C)
Dew Point: 64 F (18 C)
Relative Humidity: 45%
Pressure (altimeter): 29.94 in. Hg (1014 hPa)
ob: FMNM 131200Z 29005KT 160V330 9999 FEW023 31/18 Q1014 NOSIG
cycle: 12

Station Type Date Time Source
FMNM TAF 2022/08/13 12:05 UTC NOAA

TAF FMNM 131100Z 1312/1412 10013KT 9999 FEW023
BECMG 1313/1315 32005KT
BECMG 1316/1319 14010KT

Example: see airport list